createdAt,value
2018-08-31T04:01:31.751Z,87.30
2018-08-31T04:03:59.811Z,87.20
2018-08-31T04:06:28.415Z,87.70
2018-08-31T04:08:56.978Z,88.50
2018-08-31T04:11:25.109Z,87.90
2018-08-31T04:13:53.659Z,87.80
2018-08-31T04:16:21.780Z,87.90
2018-08-31T04:18:49.863Z,88.00
2018-08-31T04:21:17.946Z,88.20
2018-08-31T04:23:46.054Z,88.40
2018-08-31T04:26:14.753Z,88.20
2018-08-31T04:28:43.827Z,88.30
2018-08-31T04:31:11.931Z,88.60
2018-08-31T04:33:41.257Z,88.60
2018-08-31T04:36:09.317Z,88.60
2018-08-31T04:38:37.487Z,88.90
2018-08-31T04:41:06.118Z,88.70
2018-08-31T04:43:34.183Z,87.70
2018-08-31T04:46:02.264Z,87.50
2018-08-31T04:48:30.355Z,87.40
2018-08-31T04:50:58.435Z,87.20
2018-08-31T04:53:26.567Z,86.30
2018-08-31T04:55:55.603Z,86.80
2018-08-31T04:58:23.660Z,85.70
2018-08-31T05:00:51.732Z,86.20
2018-08-31T05:03:19.795Z,87.40
2018-08-31T05:05:47.843Z,87.00
2018-08-31T05:08:16.024Z,87.60
2018-08-31T05:10:44.100Z,87.30
2018-08-31T05:13:12.172Z,87.70
2018-08-31T05:15:40.256Z,87.60
2018-08-31T05:18:08.327Z,87.60
2018-08-31T05:20:36.693Z,87.00
2018-08-31T05:23:04.957Z,86.40
2018-08-31T05:25:32.983Z,86.10
2018-08-31T05:28:03.239Z,86.10
2018-08-31T05:30:31.324Z,86.20
2018-08-31T05:32:59.608Z,85.40
2018-08-31T05:35:27.695Z,85.10
2018-08-31T05:37:55.748Z,85.00
2018-08-31T05:40:23.805Z,85.10
2018-08-31T05:42:51.924Z,86.10
2018-08-31T05:45:20.839Z,86.40
2018-08-31T05:47:48.899Z,86.40
2018-08-31T05:50:17.017Z,86.40
2018-08-31T05:52:51.017Z,85.90
2018-08-31T05:55:19.099Z,85.70
2018-08-31T05:57:47.248Z,85.40
2018-08-31T06:00:15.447Z,84.30
2018-08-31T06:02:43.841Z,84.00
2018-08-31T06:05:11.878Z,83.70
2018-08-31T06:07:39.932Z,83.80
2018-08-31T06:10:08.198Z,83.50
2018-08-31T06:12:36.294Z,84.10
2018-08-31T06:15:04.503Z,84.00
2018-08-31T06:17:32.559Z,83.70
2018-08-31T06:20:00.644Z,84.20
2018-08-31T06:22:28.717Z,84.60
2018-08-31T06:24:56.783Z,84.90
2018-08-31T06:27:25.111Z,84.70
2018-08-31T06:29:53.264Z,85.10
2018-08-31T06:32:21.325Z,85.00
2018-08-31T06:34:49.392Z,83.80
2018-08-31T06:37:17.472Z,82.60
2018-08-31T06:39:45.519Z,81.70
2018-08-31T06:42:14.490Z,82.10
2018-08-31T06:44:48.372Z,81.40
2018-08-31T06:47:16.441Z,82.00
2018-08-31T06:49:44.565Z,82.50
2018-08-31T06:52:12.659Z,82.00
2018-08-31T06:54:40.715Z,82.10
2018-08-31T06:57:08.779Z,82.20
2018-08-31T06:59:36.847Z,81.80
2018-08-31T07:02:05.107Z,80.50
2018-08-31T07:04:33.168Z,80.00
2018-08-31T07:07:02.292Z,79.20
2018-08-31T07:09:30.359Z,78.10
2018-08-31T07:11:58.716Z,78.80
2018-08-31T07:14:26.768Z,78.00
2018-08-31T07:16:54.828Z,77.10
2018-08-31T07:19:22.898Z,72.50
2018-08-31T07:21:50.954Z,65.80
2018-08-31T07:24:19.100Z,61.40
2018-08-31T07:26:47.290Z,61.80
2018-08-31T07:29:19.963Z,61.10
2018-08-31T07:31:49.423Z,59.60
2018-08-31T07:34:17.475Z,56.20
2018-08-31T07:36:45.522Z,56.20
2018-08-31T07:39:13.573Z,56.50
2018-08-31T07:41:41.631Z,55.40
2018-08-31T07:44:10.007Z,57.10
2018-08-31T07:46:40.163Z,54.80
2018-08-31T07:49:08.221Z,55.60
2018-08-31T07:51:36.284Z,55.00
2018-08-31T07:54:05.600Z,54.40
2018-08-31T07:56:33.663Z,54.10
2018-08-31T07:59:01.715Z,50.00
2018-08-31T08:01:29.791Z,52.60
2018-08-31T08:03:58.904Z,51.90
2018-08-31T08:06:26.983Z,53.40
2018-08-31T08:08:56.072Z,53.90
2018-08-31T08:11:24.136Z,51.90
2018-08-31T08:13:52.191Z,52.40
2018-08-31T08:16:21.467Z,50.20
2018-08-31T08:18:49.532Z,51.00
2018-08-31T08:21:17.626Z,53.20
2018-08-31T08:23:45.968Z,53.00
2018-08-31T08:26:14.019Z,48.90
2018-08-31T08:28:46.089Z,47.00
2018-08-31T08:31:14.260Z,45.10
2018-08-31T08:33:42.328Z,46.30
2018-08-31T08:36:10.426Z,46.50
2018-08-31T08:38:38.564Z,48.10
2018-08-31T08:41:06.619Z,48.20
2018-08-31T08:43:34.692Z,48.40
2018-08-31T08:46:02.760Z,47.60
2018-08-31T08:48:30.932Z,49.10
2018-08-31T08:50:58.892Z,48.90
2018-08-31T08:53:26.962Z,49.50
2018-08-31T08:55:55.027Z,48.90
2018-08-31T08:58:24.484Z,47.20
2018-08-31T09:00:53.428Z,48.50
2018-08-31T09:03:21.499Z,49.10
2018-08-31T09:05:49.578Z,49.90
2018-08-31T09:08:17.669Z,48.10
2018-08-31T09:10:45.751Z,47.10
2018-08-31T09:13:24.362Z,45.80
2018-08-31T09:15:52.427Z,45.20
2018-08-31T09:18:24.533Z,44.10
2018-08-31T09:20:54.055Z,44.30
2018-08-31T09:23:22.148Z,44.60
2018-08-31T09:25:50.223Z,43.20
2018-08-31T09:28:19.751Z,43.60
2018-08-31T09:30:48.299Z,44.40
2018-08-31T09:33:17.708Z,44.40
2018-08-31T09:35:46.015Z,47.70
2018-08-31T09:38:16.305Z,48.60
2018-08-31T09:40:44.323Z,49.40
2018-08-31T09:43:13.488Z,49.10
2018-08-31T09:45:49.515Z,48.50
2018-08-31T09:48:17.792Z,48.50
2018-08-31T15:32:23.198Z,40.80
2018-08-31T15:34:51.259Z,41.20
2018-08-31T15:37:19.343Z,41.50
2018-08-31T15:42:53.748Z,42.60
2018-08-31T15:45:32.683Z,42.90
2018-08-31T15:48:00.959Z,44.00
2018-08-31T15:50:29.902Z,43.80
2018-08-31T15:52:58.293Z,43.10
2018-08-31T15:55:26.376Z,42.60
2018-08-31T15:57:54.544Z,43.90
2018-08-31T16:00:22.619Z,43.40
2018-08-31T16:02:50.697Z,42.90
2018-08-31T16:05:18.914Z,42.30
2018-08-31T16:08:03.652Z,43.30
2018-08-31T16:10:32.786Z,43.60
